sensor_id;sensor_type;location;lat;lon;timestamp;temperature;humidity
16289;DHT22;26089;43.538;5.250;2023-04-01T00:01:42;10.70;99.90
16289;DHT22;26089;43.538;5.250;2023-04-01T00:04:09;10.60;99.90
16289;DHT22;26089;43.538;5.250;2023-04-01T00:06:36;10.60;99.90
16289;DHT22;26089;43.538;5.250;2023-04-01T00:09:03;10.50;99.90
16289;DHT22;26089;43.538;5.250;2023-04-01T00:11:30;10.60;99.90
16289;DHT22;26089;43.538;5.250;2023-04-01T00:13:57;10.60;99.90
16289;DHT22;26089;43.538;5.250;2023-04-01T00:16:25;10.60;99.90
16289;DHT22;26089;43.538;5.250;2023-04-01T00:18:52;10.50;99.90
16289;DHT22;26089;43.538;5.250;2023-04-01T00:21:20;10.50;99.90
16289;DHT22;26089;43.538;5.250;2023-04-01T00:23:47;10.40;99.90
16289;DHT22;26089;43.538;5.250;2023-04-01T00:26:14;11.00;99.90
16289;DHT22;26089;43.538;5.250;2023-04-01T00:28:44;10.30;99.90
16289;DHT22;26089;43.538;5.250;2023-04-01T00:31:12;10.20;99.90
16289;DHT22;26089;43.538;5.250;2023-04-01T00:33:40;10.20;99.90
16289;DHT22;26089;43.538;5.250;2023-04-01T00:36:09;10.00;99.90
16289;DHT22;26089;43.538;5.250;2023-04-01T00:38:37;10.00;99.90
16289;DHT22;26089;43.538;5.250;2023-04-01T00:41:05;10.00;99.90
16289;DHT22;26089;43.538;5.250;2023-04-01T00:43:32;10.50;99.90
16289;DHT22;26089;43.538;5.250;2023-04-01T00:46:00;10.00;99.90
16289;DHT22;26089;43.538;5.250;2023-04-01T00:48:29;9.90;99.90
16289;DHT22;26089;43.538;5.250;2023-04-01T00:51:00;9.90;99.90
16289;DHT22;26089;43.538;5.250;2023-04-01T00:53:29;9.90;99.90
16289;DHT22;26089;43.538;5.250;2023-04-01T00:56:00;9.90;99.90
16289;DHT22;26089;43.538;5.250;2023-04-01T00:58:29;10.00;99.90
16289;DHT22;26089;43.538;5.250;2023-04-01T01:00:59;10.10;99.90
16289;DHT22;26089;43.538;5.250;2023-04-01T01:03:26;10.10;99.90
16289;DHT22;26089;43.538;5.250;2023-04-01T01:06:07;10.10;99.90
16289;DHT22;26089;43.538;5.250;2023-04-01T01:08:52;10.20;99.90
16289;DHT22;26089;43.538;5.250;2023-04-01T01:11:29;10.20;99.90
16289;DHT22;26089;43.538;5.250;2023-04-01T01:14:07;10.30;99.90
16289;DHT22;26089;43.538;5.250;2023-04-01T01:16:41;10.30;99.90
16289;DHT22;26089;43.538;5.250;2023-04-01T01:19:20;9.80;99.90
16289;DHT22;26089;43.538;5.250;2023-04-01T01:22:04;10.30;99.90
16289;DHT22;26089;43.538;5.250;2023-04-01T01:24:54;10.40;99.90
16289;DHT22;26089;43.538;5.250;2023-04-01T01:27:23;10.40;99.90
16289;DHT22;26089;43.538;5.250;2023-04-01T01:30:15;10.50;99.90
16289;DHT22;26089;43.538;5.250;2023-04-01T01:32:59;11.00;99.90
16289;DHT22;26089;43.538;5.250;2023-04-01T01:35:32;10.80;99.90
16289;DHT22;26089;43.538;5.250;2023-04-01T01:38:01;10.80;99.90
16289;DHT22;26089;43.538;5.250;2023-04-01T01:40:30;10.80;99.90
16289;DHT22;26089;43.538;5.250;2023-04-01T01:43:00;10.90;99.90
16289;DHT22;26089;43.538;5.250;2023-04-01T01:45:31;10.80;99.90
16289;DHT22;26089;43.538;5.250;2023-04-01T01:47:59;10.90;99.90
16289;DHT22;26089;43.538;5.250;2023-04-01T01:50:28;11.00;99.90
16289;DHT22;26089;43.538;5.250;2023-04-01T01:53:03;11.00;99.90
16289;DHT22;26089;43.538;5.250;2023-04-01T01:55:32;11.00;99.90
16289;DHT22;26089;43.538;5.250;2023-04-01T01:58:02;11.00;99.90
16289;DHT22;26089;43.538;5.250;2023-04-01T02:00:33;10.90;99.90
16289;DHT22;26089;43.538;5.250;2023-04-01T02:03:01;10.80;99.90
16289;DHT22;26089;43.538;5.250;2023-04-01T02:05:30;10.70;99.90
16289;DHT22;26089;43.538;5.250;2023-04-01T02:08:01;10.60;99.90
16289;DHT22;26089;43.538;5.250;2023-04-01T02:10:31;10.30;99.90
16289;DHT22;26089;43.538;5.250;2023-04-01T02:13:04;10.30;99.90
16289;DHT22;26089;43.538;5.250;2023-04-01T02:15:37;10.20;99.90
16289;DHT22;26089;43.538;5.250;2023-04-01T02:18:04;10.20;99.90
16289;DHT22;26089;43.538;5.250;2023-04-01T02:20:34;10.10;99.90
16289;DHT22;26089;43.538;5.250;2023-04-01T02:23:03;9.90;99.90
16289;DHT22;26089;43.538;5.250;2023-04-01T02:25:36;9.80;99.90
16289;DHT22;26089;43.538;5.250;2023-04-01T02:28:06;9.70;99.90
16289;DHT22;26089;43.538;5.250;2023-04-01T02:30:36;9.70;99.90
16289;DHT22;26089;43.538;5.250;2023-04-01T02:33:05;9.70;99.90
16289;DHT22;26089;43.538;5.250;2023-04-01T02:35:35;9.70;99.90
16289;DHT22;26089;43.538;5.250;2023-04-01T02:38:03;9.60;99.90
16289;DHT22;26089;43.538;5.250;2023-04-01T02:40:41;9.40;99.90
16289;DHT22;26089;43.538;5.250;2023-04-01T02:43:08;9.70;99.90
16289;DHT22;26089;43.538;5.250;2023-04-01T02:45:36;9.70;99.90
16289;DHT22;26089;43.538;5.250;2023-04-01T02:48:03;9.80;99.90
16289;DHT22;26089;43.538;5.250;2023-04-01T02:50:30;10.10;99.90
16289;DHT22;26089;43.538;5.250;2023-04-01T02:52:59;9.70;99.90
16289;DHT22;26089;43.538;5.250;2023-04-01T02:55:26;9.60;99.90
16289;DHT22;26089;43.538;5.250;2023-04-01T02:57:53;9.60;99.90
16289;DHT22;26089;43.538;5.250;2023-04-01T03:00:20;10.00;99.90
16289;DHT22;26089;43.538;5.250;2023-04-01T03:02:47;9.60;99.90
16289;DHT22;26089;43.538;5.250;2023-04-01T03:05:14;9.50;99.90
16289;DHT22;26089;43.538;5.250;2023-04-01T03:07:41;9.60;99.90
16289;DHT22;26089;43.538;5.250;2023-04-01T03:10:10;9.60;99.90
16289;DHT22;26089;43.538;5.250;2023-04-01T03:12:37;9.60;99.90
16289;DHT22;26089;43.538;5.250;2023-04-01T03:15:05;9.20;99.90
16289;DHT22;26089;43.538;5.250;2023-04-01T03:17:32;9.60;99.90
16289;DHT22;26089;43.538;5.250;2023-04-01T03:19:59;9.70;99.90
16289;DHT22;26089;43.538;5.250;2023-04-01T03:22:26;9.70;99.90
16289;DHT22;26089;43.538;5.250;2023-04-01T03:24:53;9.80;99.90
16289;DHT22;26089;43.538;5.250;2023-04-01T03:27:21;9.90;99.90
16289;DHT22;26089;43.538;5.250;2023-04-01T03:29:49;10.00;99.90
16289;DHT22;26089;43.538;5.250;2023-04-01T03:32:15;10.20;99.90
16289;DHT22;26089;43.538;5.250;2023-04-01T03:34:42;10.30;99.90
16289;DHT22;26089;43.538;5.250;2023-04-01T03:37:09;10.50;99.90
16289;DHT22;26089;43.538;5.250;2023-04-01T03:39:37;10.60;99.90
16289;DHT22;26089;43.538;5.250;2023-04-01T03:42:04;10.70;99.90
16289;DHT22;26089;43.538;5.250;2023-04-01T03:44:33;10.80;99.90
16289;DHT22;26089;43.538;5.250;2023-04-01T03:47:01;10.90;99.90
16289;DHT22;26089;43.538;5.250;2023-04-01T03:49:28;11.00;99.90
16289;DHT22;26089;43.538;5.250;2023-04-01T03:51:55;11.00;99.90
16289;DHT22;26089;43.538;5.250;2023-04-01T03:54:21;11.10;99.90
16289;DHT22;26089;43.538;5.250;2023-04-01T03:56:48;11.10;99.90
16289;DHT22;26089;43.538;5.250;2023-04-01T03:59:15;11.10;99.90
16289;DHT22;26089;43.538;5.250;2023-04-01T04:01:46;11.10;99.90
16289;DHT22;26089;43.538;5.250;2023-04-01T04:04:13;11.20;99.90
16289;DHT22;26089;43.538;5.250;2023-04-01T04:06:40;11.20;99.90
16289;DHT22;26089;43.538;5.250;2023-04-01T04:09:07;11.20;99.90
16289;DHT22;26089;43.538;5.250;2023-04-01T04:11:34;11.20;99.90
16289;DHT22;26089;43.538;5.250;2023-04-01T04:14:01;11.20;99.90
16289;DHT22;26089;43.538;5.250;2023-04-01T04:16:28;11.40;99.90
16289;DHT22;26089;43.538;5.250;2023-04-01T04:18:56;11.20;99.90
16289;DHT22;26089;43.538;5.250;2023-04-01T04:21:23;10.90;99.90
16289;DHT22;26089;43.538;5.250;2023-04-01T04:23:50;11.00;99.90
16289;DHT22;26089;43.538;5.250;2023-04-01T04:26:17;11.30;99.90
16289;DHT22;26089;43.538;5.250;2023-04-01T04:28:44;11.30;99.90
16289;DHT22;26089;43.538;5.250;2023-04-01T04:31:12;11.40;99.90
16289;DHT22;26089;43.538;5.250;2023-04-01T04:33:44;11.40;99.90
16289;DHT22;26089;43.538;5.250;2023-04-01T04:36:13;11.30;99.90
16289;DHT22;26089;43.538;5.250;2023-04-01T04:38:40;11.40;99.90
16289;DHT22;26089;43.538;5.250;2023-04-01T04:41:09;11.40;99.90
16289;DHT22;26089;43.538;5.250;2023-04-01T04:43:37;11.40;99.90
16289;DHT22;26089;43.538;5.250;2023-04-01T04:46:05;11.40;99.90
16289;DHT22;26089;43.538;5.250;2023-04-01T04:48:32;11.40;99.90
16289;DHT22;26089;43.538;5.250;2023-04-01T04:50:59;11.50;99.90
16289;DHT22;26089;43.538;5.250;2023-04-01T04:53:28;11.50;99.90
16289;DHT22;26089;43.538;5.250;2023-04-01T04:55:55;11.50;99.90
16289;DHT22;26089;43.538;5.250;2023-04-01T04:58:22;11.40;99.90
16289;DHT22;26089;43.538;5.250;2023-04-01T05:00:49;11.50;99.90
16289;DHT22;26089;43.538;5.250;2023-04-01T05:03:16;11.70;99.90
16289;DHT22;26089;43.538;5.250;2023-04-01T05:05:48;11.30;99.90
16289;DHT22;26089;43.538;5.250;2023-04-01T05:08:15;11.20;99.90
16289;DHT22;26089;43.538;5.250;2023-04-01T05:10:44;11.20;99.90
16289;DHT22;26089;43.538;5.250;2023-04-01T05:13:11;11.20;99.90
16289;DHT22;26089;43.538;5.250;2023-04-01T05:15:38;11.20;99.90
16289;DHT22;26089;43.538;5.250;2023-04-01T05:18:05;11.10;99.90
16289;DHT22;26089;43.538;5.250;2023-04-01T05:20:32;11.10;99.90
16289;DHT22;26089;43.538;5.250;2023-04-01T05:23:00;10.00;99.90
16289;DHT22;26089;43.538;5.250;2023-04-01T05:25:27;11.00;99.90
16289;DHT22;26089;43.538;5.250;2023-04-01T05:27:55;11.00;99.90
16289;DHT22;26089;43.538;5.250;2023-04-01T05:30:22;11.10;99.90
16289;DHT22;26089;43.538;5.250;2023-04-01T05:32:49;11.00;99.90
16289;DHT22;26089;43.538;5.250;2023-04-01T05:35:16;11.00;99.90
16289;DHT22;26089;43.538;5.250;2023-04-01T05:37:43;11.00;99.90
16289;DHT22;26089;43.538;5.250;2023-04-01T05:40:11;11.00;99.90
16289;DHT22;26089;43.538;5.250;2023-04-01T05:42:38;11.00;99.90
16289;DHT22;26089;43.538;5.250;2023-04-01T05:45:07;11.00;99.90
16289;DHT22;26089;43.538;5.250;2023-04-01T05:47:34;11.10;99.90
16289;DHT22;26089;43.538;5.250;2023-04-01T05:50:01;10.90;99.90
16289;DHT22;26089;43.538;5.250;2023-04-01T05:52:28;11.10;99.90
16289;DHT22;26089;43.538;5.250;2023-04-01T05:54:55;11.10;99.90
16289;DHT22;26089;43.538;5.250;2023-04-01T05:57:22;11.10;99.90
16289;DHT22;26089;43.538;5.250;2023-04-01T05:59:49;11.00;99.90
16289;DHT22;26089;43.538;5.250;2023-04-01T06:02:18;11.10;99.90
16289;DHT22;26089;43.538;5.250;2023-04-01T06:04:45;11.10;99.90
16289;DHT22;26089;43.538;5.250;2023-04-01T06:07:12;11.20;99.90
16289;DHT22;26089;43.538;5.250;2023-04-01T06:09:40;11.20;99.90
16289;DHT22;26089;43.538;5.250;2023-04-01T06:12:29;11.30;99.90
16289;DHT22;26089;43.538;5.250;2023-04-01T06:15:07;11.40;99.90
16289;DHT22;26089;43.538;5.250;2023-04-01T06:17:52;11.50;99.90
16289;DHT22;26089;43.538;5.250;2023-04-01T06:20:31;11.60;99.90
16289;DHT22;26089;43.538;5.250;2023-04-01T06:23:23;11.70;99.90
16289;DHT22;26089;43.538;5.250;2023-04-01T06:26:18;11.80;99.90
16289;DHT22;26089;43.538;5.250;2023-04-01T06:29:14;11.90;99.90
16289;DHT22;26089;43.538;5.250;2023-04-01T06:31:57;12.00;99.90
16289;DHT22;26089;43.538;5.250;2023-04-01T06:34:49;12.20;99.90
16289;DHT22;26089;43.538;5.250;2023-04-01T06:40:54;12.40;99.90
16289;DHT22;26089;43.538;5.250;2023-04-01T06:43:30;12.70;99.90
16289;DHT22;26089;43.538;5.250;2023-04-01T06:46:09;12.60;99.90
16289;DHT22;26089;43.538;5.250;2023-04-01T06:48:53;12.80;99.90
16289;DHT22;26089;43.538;5.250;2023-04-01T06:51:34;13.10;99.90
16289;DHT22;26089;43.538;5.250;2023-04-01T06:54:04;13.30;99.90
16289;DHT22;26089;43.538;5.250;2023-04-01T06:56:33;13.40;99.90
16289;DHT22;26089;43.538;5.250;2023-04-01T06:59:03;13.40;99.90
16289;DHT22;26089;43.538;5.250;2023-04-01T07:01:35;13.40;99.90
16289;DHT22;26089;43.538;5.250;2023-04-01T07:04:08;13.20;99.90
16289;DHT22;26089;43.538;5.250;2023-04-01T07:06:42;13.20;99.90
16289;DHT22;26089;43.538;5.250;2023-04-01T07:09:12;13.20;99.90
16289;DHT22;26089;43.538;5.250;2023-04-01T07:11:41;13.40;99.90
16289;DHT22;26089;43.538;5.250;2023-04-01T07:14:15;13.80;99.90
16289;DHT22;26089;43.538;5.250;2023-04-01T07:16:46;13.80;99.90
16289;DHT22;26089;43.538;5.250;2023-04-01T07:19:20;14.00;99.90
16289;DHT22;26089;43.538;5.250;2023-04-01T07:21:52;14.10;99.90
16289;DHT22;26089;43.538;5.250;2023-04-01T07:24:24;14.00;99.90
16289;DHT22;26089;43.538;5.250;2023-04-01T07:26:55;14.60;99.90
16289;DHT22;26089;43.538;5.250;2023-04-01T07:29:23;15.20;99.90
16289;DHT22;26089;43.538;5.250;2023-04-01T07:32:09;15.10;99.90
16289;DHT22;26089;43.538;5.250;2023-04-01T07:34:50;14.80;99.90
16289;DHT22;26089;43.538;5.250;2023-04-01T07:37:25;14.40;99.90
16289;DHT22;26089;43.538;5.250;2023-04-01T07:39:57;14.10;99.90
16289;DHT22;26089;43.538;5.250;2023-04-01T07:42:35;13.90;99.90
16289;DHT22;26089;43.538;5.250;2023-04-01T07:45:11;13.90;99.90
16289;DHT22;26089;43.538;5.250;2023-04-01T07:47:55;13.80;99.90
16289;DHT22;26089;43.538;5.250;2023-04-01T07:50:27;14.00;99.90
16289;DHT22;26089;43.538;5.250;2023-04-01T07:53:05;14.30;99.90
16289;DHT22;26089;43.538;5.250;2023-04-01T07:55:39;14.60;99.90
16289;DHT22;26089;43.538;5.250;2023-04-01T07:58:14;14.50;99.90
16289;DHT22;26089;43.538;5.250;2023-04-01T08:00:49;14.40;99.90
16289;DHT22;26089;43.538;5.250;2023-04-01T08:03:33;14.20;99.90
16289;DHT22;26089;43.538;5.250;2023-04-01T08:06:06;14.20;99.90
16289;DHT22;26089;43.538;5.250;2023-04-01T08:08:45;14.20;99.90
16289;DHT22;26089;43.538;5.250;2023-04-01T08:11:22;14.30;99.90
16289;DHT22;26089;43.538;5.250;2023-04-01T08:14:00;14.30;99.90
16289;DHT22;26089;43.538;5.250;2023-04-01T08:16:35;14.40;99.90
16289;DHT22;26089;43.538;5.250;2023-04-01T08:19:14;14.60;99.90
16289;DHT22;26089;43.538;5.250;2023-04-01T08:21:47;14.80;99.90
16289;DHT22;26089;43.538;5.250;2023-04-01T08:24:25;15.10;99.90
16289;DHT22;26089;43.538;5.250;2023-04-01T08:26:56;15.50;99.90
16289;DHT22;26089;43.538;5.250;2023-04-01T08:29:30;16.60;99.90
16289;DHT22;26089;43.538;5.250;2023-04-01T08:32:05;17.80;99.90
16289;DHT22;26089;43.538;5.250;2023-04-01T08:34:37;17.60;99.90
16289;DHT22;26089;43.538;5.250;2023-04-01T08:37:07;17.50;99.90
16289;DHT22;26089;43.538;5.250;2023-04-01T08:39:38;17.50;99.90
16289;DHT22;26089;43.538;5.250;2023-04-01T08:42:30;16.90;99.90
16289;DHT22;26089;43.538;5.250;2023-04-01T08:45:10;17.20;99.90
16289;DHT22;26089;43.538;5.250;2023-04-01T08:47:46;17.10;99.90
16289;DHT22;26089;43.538;5.250;2023-04-01T08:50:30;17.40;99.90
16289;DHT22;26089;43.538;5.250;2023-04-01T08:53:06;17.00;99.90
16289;DHT22;26089;43.538;5.250;2023-04-01T08:56:03;16.50;99.90
16289;DHT22;26089;43.538;5.250;2023-04-01T08:59:07;16.40;99.90
16289;DHT22;26089;43.538;5.250;2023-04-01T09:01:55;16.60;99.90
16289;DHT22;26089;43.538;5.250;2023-04-01T09:04:37;17.00;99.90
16289;DHT22;26089;43.538;5.250;2023-04-01T09:07:26;17.50;99.90
16289;DHT22;26089;43.538;5.250;2023-04-01T09:13:08;17.80;99.90
16289;DHT22;26089;43.538;5.250;2023-04-01T09:15:56;18.20;99.90
16289;DHT22;26089;43.538;5.250;2023-04-01T09:18:54;18.20;99.90
16289;DHT22;26089;43.538;5.250;2023-04-01T09:21:34;18.40;99.90
16289;DHT22;26089;43.538;5.250;2023-04-01T09:27:10;19.00;99.90
16289;DHT22;26089;43.538;5.250;2023-04-01T09:30:01;18.20;99.90
16289;DHT22;26089;43.538;5.250;2023-04-01T09:32:58;17.70;99.90
16289;DHT22;26089;43.538;5.250;2023-04-01T09:35:38;17.50;99.90
16289;DHT22;26089;43.538;5.250;2023-04-01T09:38:20;17.50;99.90
16289;DHT22;26089;43.538;5.250;2023-04-01T09:40:54;17.60;99.90
16289;DHT22;26089;43.538;5.250;2023-04-01T09:43:25;17.20;99.90
16289;DHT22;26089;43.538;5.250;2023-04-01T09:46:04;17.20;99.90
16289;DHT22;26089;43.538;5.250;2023-04-01T09:49:00;17.30;99.90
16289;DHT22;26089;43.538;5.250;2023-04-01T09:51:37;17.00;99.90
16289;DHT22;26089;43.538;5.250;2023-04-01T09:54:19;16.90;99.90
16289;DHT22;26089;43.538;5.250;2023-04-01T10:00:02;17.00;99.90
16289;DHT22;26089;43.538;5.250;2023-04-01T10:03:14;16.80;99.90
16289;DHT22;26089;43.538;5.250;2023-04-01T10:15:55;17.40;99.90
16289;DHT22;26089;43.538;5.250;2023-04-01T10:24:53;19.40;99.90
16289;DHT22;26089;43.538;5.250;2023-04-01T10:27:57;19.20;99.90
16289;DHT22;26089;43.538;5.250;2023-04-01T10:31:02;18.80;99.90
16289;DHT22;26089;43.538;5.250;2023-04-01T10:36:55;19.20;99.90
16289;DHT22;26089;43.538;5.250;2023-04-01T10:40:02;19.40;99.90
16289;DHT22;26089;43.538;5.250;2023-04-01T10:54:47;17.80;99.90
16289;DHT22;26089;43.538;5.250;2023-04-01T10:57:45;17.50;99.90
16289;DHT22;26089;43.538;5.250;2023-04-01T11:00:31;17.70;99.90
16289;DHT22;26089;43.538;5.250;2023-04-01T11:03:32;18.00;99.90
16289;DHT22;26089;43.538;5.250;2023-04-01T11:06:30;18.40;99.90
16289;DHT22;26089;43.538;5.250;2023-04-01T11:15:44;17.60;99.90
16289;DHT22;26089;43.538;5.250;2023-04-01T11:21:59;18.50;99.90
16289;DHT22;26089;43.538;5.250;2023-04-01T11:24:46;18.50;99.90
16289;DHT22;26089;43.538;5.250;2023-04-01T11:27:38;18.30;99.90
16289;DHT22;26089;43.538;5.250;2023-04-01T11:30:29;18.30;99.90
16289;DHT22;26089;43.538;5.250;2023-04-01T11:33:03;18.50;99.90
16289;DHT22;26089;43.538;5.250;2023-04-01T11:35:42;18.20;99.90
16289;DHT22;26089;43.538;5.250;2023-04-01T11:38:22;18.10;99.90
16289;DHT22;26089;43.538;5.250;2023-04-01T11:40:58;18.30;99.90
16289;DHT22;26089;43.538;5.250;2023-04-01T11:43:31;18.50;99.90
16289;DHT22;26089;43.538;5.250;2023-04-01T11:46:06;19.00;99.90
16289;DHT22;26089;43.538;5.250;2023-04-01T11:48:46;19.60;99.90
16289;DHT22;26089;43.538;5.250;2023-04-01T11:54:27;20.50;99.90
16289;DHT22;26089;43.538;5.250;2023-04-01T11:57:16;20.50;99.90
16289;DHT22;26089;43.538;5.250;2023-04-01T12:00:05;19.90;99.90
16289;DHT22;26089;43.538;5.250;2023-04-01T12:02:49;20.40;99.90
16289;DHT22;26089;43.538;5.250;2023-04-01T12:05:33;21.40;99.90
16289;DHT22;26089;43.538;5.250;2023-04-01T12:08:11;21.90;99.90
16289;DHT22;26089;43.538;5.250;2023-04-01T12:10:45;22.50;99.90
16289;DHT22;26089;43.538;5.250;2023-04-01T12:13:24;22.30;99.90
16289;DHT22;26089;43.538;5.250;2023-04-01T12:16:04;22.50;99.90
16289;DHT22;26089;43.538;5.250;2023-04-01T12:18:38;22.20;99.90
16289;DHT22;26089;43.538;5.250;2023-04-01T12:21:16;20.60;99.90
16289;DHT22;26089;43.538;5.250;2023-04-01T12:26:55;21.00;99.90
16289;DHT22;26089;43.538;5.250;2023-04-01T12:32:25;21.30;99.90
16289;DHT22;26089;43.538;5.250;2023-04-01T12:35:15;20.40;99.90
16289;DHT22;26089;43.538;5.250;2023-04-01T12:37:51;19.70;99.90
16289;DHT22;26089;43.538;5.250;2023-04-01T12:40:47;19.80;99.90
16289;DHT22;26089;43.538;5.250;2023-04-01T12:43:43;19.70;99.90
16289;DHT22;26089;43.538;5.250;2023-04-01T12:46:20;19.40;99.90
16289;DHT22;26089;43.538;5.250;2023-04-01T12:49:12;19.80;99.90
16289;DHT22;26089;43.538;5.250;2023-04-01T12:52:16;19.20;99.90
16289;DHT22;26089;43.538;5.250;2023-04-01T12:55:09;20.00;99.90
16289;DHT22;26089;43.538;5.250;2023-04-01T12:58:03;20.60;99.90
16289;DHT22;26089;43.538;5.250;2023-04-01T13:00:48;21.10;99.90
16289;DHT22;26089;43.538;5.250;2023-04-01T13:06:36;20.30;99.90
16289;DHT22;26089;43.538;5.250;2023-04-01T13:09:19;20.20;99.90
16289;DHT22;26089;43.538;5.250;2023-04-01T13:12:09;20.40;99.90
16289;DHT22;26089;43.538;5.250;2023-04-01T13:15:01;20.40;99.90
16289;DHT22;26089;43.538;5.250;2023-04-01T13:17:38;19.90;99.90
16289;DHT22;26089;43.538;5.250;2023-04-01T13:20:15;20.40;99.90
16289;DHT22;26089;43.538;5.250;2023-04-01T13:22:51;20.40;99.90
16289;DHT22;26089;43.538;5.250;2023-04-01T13:25:30;20.70;99.90
16289;DHT22;26089;43.538;5.250;2023-04-01T13:28:05;21.20;99.90
16289;DHT22;26089;43.538;5.250;2023-04-01T13:30:36;21.00;99.90
16289;DHT22;26089;43.538;5.250;2023-04-01T13:33:11;21.10;99.90
16289;DHT22;26089;43.538;5.250;2023-04-01T13:35:46;21.30;99.90
16289;DHT22;26089;43.538;5.250;2023-04-01T13:38:39;21.50;99.90
16289;DHT22;26089;43.538;5.250;2023-04-01T13:41:19;21.00;99.90
16289;DHT22;26089;43.538;5.250;2023-04-01T13:43:51;21.70;99.90
16289;DHT22;26089;43.538;5.250;2023-04-01T13:46:32;22.10;99.90
16289;DHT22;26089;43.538;5.250;2023-04-01T13:49:20;22.30;99.90
16289;DHT22;26089;43.538;5.250;2023-04-01T13:52:09;22.20;99.90
16289;DHT22;26089;43.538;5.250;2023-04-01T13:55:05;22.50;99.90
16289;DHT22;26089;43.538;5.250;2023-04-01T13:57:48;22.30;99.90
16289;DHT22;26089;43.538;5.250;2023-04-01T14:00:32;22.60;99.90
16289;DHT22;26089;43.538;5.250;2023-04-01T14:03:27;22.70;99.90
16289;DHT22;26089;43.538;5.250;2023-04-01T14:06:14;22.20;99.90
16289;DHT22;26089;43.538;5.250;2023-04-01T14:09:00;21.70;99.90
16289;DHT22;26089;43.538;5.250;2023-04-01T14:11:39;21.20;99.90
16289;DHT22;26089;43.538;5.250;2023-04-01T14:14:17;20.50;99.90
16289;DHT22;26089;43.538;5.250;2023-04-01T14:17:21;20.30;99.90
16289;DHT22;26089;43.538;5.250;2023-04-01T14:20:07;20.30;99.90
16289;DHT22;26089;43.538;5.250;2023-04-01T14:22:47;20.70;99.90
16289;DHT22;26089;43.538;5.250;2023-04-01T14:25:39;20.00;99.90
16289;DHT22;26089;43.538;5.250;2023-04-01T14:28:18;20.30;99.90
16289;DHT22;26089;43.538;5.250;2023-04-01T14:31:06;20.30;99.90
16289;DHT22;26089;43.538;5.250;2023-04-01T14:33:46;20.70;99.90
16289;DHT22;26089;43.538;5.250;2023-04-01T14:36:37;20.70;99.90
16289;DHT22;26089;43.538;5.250;2023-04-01T14:39:19;21.30;99.90
16289;DHT22;26089;43.538;5.250;2023-04-01T14:42:03;21.50;99.90
16289;DHT22;26089;43.538;5.250;2023-04-01T14:44:51;21.50;99.90
16289;DHT22;26089;43.538;5.250;2023-04-01T14:47:44;22.10;99.90
16289;DHT22;26089;43.538;5.250;2023-04-01T14:50:14;22.20;99.90
16289;DHT22;26089;43.538;5.250;2023-04-01T14:52:46;21.40;99.90
16289;DHT22;26089;43.538;5.250;2023-04-01T14:55:28;21.10;99.90
16289;DHT22;26089;43.538;5.250;2023-04-01T14:58:09;21.00;99.90
16289;DHT22;26089;43.538;5.250;2023-04-01T15:00:50;20.30;99.90
16289;DHT22;26089;43.538;5.250;2023-04-01T15:03:25;20.00;99.90
16289;DHT22;26089;43.538;5.250;2023-04-01T15:05:59;20.00;99.90
16289;DHT22;26089;43.538;5.250;2023-04-01T15:08:29;20.00;99.90
16289;DHT22;26089;43.538;5.250;2023-04-01T15:11:23;19.80;99.90
16289;DHT22;26089;43.538;5.250;2023-04-01T15:14:15;19.70;99.90
16289;DHT22;26089;43.538;5.250;2023-04-01T15:16:55;20.10;99.90
16289;DHT22;26089;43.538;5.250;2023-04-01T15:19:36;20.40;99.90
16289;DHT22;26089;43.538;5.250;2023-04-01T15:22:32;20.00;99.90
16289;DHT22;26089;43.538;5.250;2023-04-01T15:25:29;19.90;99.90
16289;DHT22;26089;43.538;5.250;2023-04-01T15:28:03;20.10;99.90
16289;DHT22;26089;43.538;5.250;2023-04-01T15:30:39;19.90;99.90
16289;DHT22;26089;43.538;5.250;2023-04-01T15:33:39;19.50;99.90
16289;DHT22;26089;43.538;5.250;2023-04-01T15:36:18;18.90;99.90
16289;DHT22;26089;43.538;5.250;2023-04-01T15:38:53;19.30;99.90
16289;DHT22;26089;43.538;5.250;2023-04-01T15:41:27;19.80;99.90
16289;DHT22;26089;43.538;5.250;2023-04-01T15:43:55;20.20;99.90
16289;DHT22;26089;43.538;5.250;2023-04-01T15:46:36;19.60;99.90
16289;DHT22;26089;43.538;5.250;2023-04-01T15:49:19;19.40;99.90
16289;DHT22;26089;43.538;5.250;2023-04-01T15:52:11;18.80;99.90
16289;DHT22;26089;43.538;5.250;2023-04-01T15:55:14;18.30;99.90
16289;DHT22;26089;43.538;5.250;2023-04-01T15:57:59;17.70;99.90
16289;DHT22;26089;43.538;5.250;2023-04-01T16:00:31;17.50;99.90
16289;DHT22;26089;43.538;5.250;2023-04-01T16:03:34;17.10;99.90
16289;DHT22;26089;43.538;5.250;2023-04-01T16:06:17;17.00;99.90
16289;DHT22;26089;43.538;5.250;2023-04-01T16:09:00;16.70;99.90
16289;DHT22;26089;43.538;5.250;2023-04-01T16:11:35;16.60;99.90
16289;DHT22;26089;43.538;5.250;2023-04-01T16:14:18;16.50;99.90
16289;DHT22;26089;43.538;5.250;2023-04-01T16:16:56;16.40;99.90
16289;DHT22;26089;43.538;5.250;2023-04-01T16:19:49;16.70;99.90
16289;DHT22;26089;43.538;5.250;2023-04-01T16:22:20;17.10;99.90
16289;DHT22;26089;43.538;5.250;2023-04-01T16:24:52;17.10;99.90
16289;DHT22;26089;43.538;5.250;2023-04-01T16:27:27;16.60;99.90
16289;DHT22;26089;43.538;5.250;2023-04-01T16:30:00;16.50;99.90
16289;DHT22;26089;43.538;5.250;2023-04-01T16:32:36;16.80;99.90
16289;DHT22;26089;43.538;5.250;2023-04-01T16:35:27;17.00;99.90
16289;DHT22;26089;43.538;5.250;2023-04-01T16:38:01;16.80;99.90
16289;DHT22;26089;43.538;5.250;2023-04-01T16:40:41;16.70;99.90
16289;DHT22;26089;43.538;5.250;2023-04-01T16:43:19;16.60;99.90
16289;DHT22;26089;43.538;5.250;2023-04-01T16:45:55;16.40;99.90
16289;DHT22;26089;43.538;5.250;2023-04-01T16:48:28;16.10;99.90
16289;DHT22;26089;43.538;5.250;2023-04-01T16:50:59;16.00;99.90
16289;DHT22;26089;43.538;5.250;2023-04-01T16:53:37;15.80;99.90
16289;DHT22;26089;43.538;5.250;2023-04-01T16:56:11;15.70;99.90
16289;DHT22;26089;43.538;5.250;2023-04-01T16:58:42;15.70;99.90
16289;DHT22;26089;43.538;5.250;2023-04-01T17:01:13;15.50;99.90
16289;DHT22;26089;43.538;5.250;2023-04-01T17:03:44;15.40;99.90
16289;DHT22;26089;43.538;5.250;2023-04-01T17:06:25;15.30;99.90
16289;DHT22;26089;43.538;5.250;2023-04-01T17:09:22;15.20;99.90
16289;DHT22;26089;43.538;5.250;2023-04-01T17:11:57;15.00;99.90
16289;DHT22;26089;43.538;5.250;2023-04-01T17:14:32;15.10;99.90
16289;DHT22;26089;43.538;5.250;2023-04-01T17:17:23;15.00;99.90
16289;DHT22;26089;43.538;5.250;2023-04-01T17:20:10;15.00;99.90
16289;DHT22;26089;43.538;5.250;2023-04-01T17:22:47;14.80;99.90
16289;DHT22;26089;43.538;5.250;2023-04-01T17:25:48;14.80;99.90
16289;DHT22;26089;43.538;5.250;2023-04-01T17:28:29;14.70;99.90
16289;DHT22;26089;43.538;5.250;2023-04-01T17:31:02;14.60;99.90
16289;DHT22;26089;43.538;5.250;2023-04-01T17:34:00;14.70;99.90
16289;DHT22;26089;43.538;5.250;2023-04-01T17:36:40;14.70;99.90
16289;DHT22;26089;43.538;5.250;2023-04-01T17:39:32;14.60;99.90